sensor_id;sensor_type;location;lat;lon;timestamp;P1;durP1;ratioP1;P2;durP2;ratioP2
21162;SDS011;10739;52.198;20.908;2024-03-17T00:01:01;7.55;;;2.47;;
21162;SDS011;10739;52.198;20.908;2024-03-17T00:03:28;9.88;;;3.05;;
21162;SDS011;10739;52.198;20.908;2024-03-17T00:05:56;10.38;;;3.03;;
21162;SDS011;10739;52.198;20.908;2024-03-17T00:08:24;16.23;;;3.35;;
21162;SDS011;10739;52.198;20.908;2024-03-17T00:10:51;11.57;;;3.13;;
21162;SDS011;10739;52.198;20.908;2024-03-17T00:13:18;12.70;;;2.90;;
21162;SDS011;10739;52.198;20.908;2024-03-17T00:15:44;9.77;;;2.22;;
21162;SDS011;10739;52.198;20.908;2024-03-17T00:18:10;12.30;;;2.80;;
21162;SDS011;10739;52.198;20.908;2024-03-17T00:20:36;10.07;;;3.00;;
21162;SDS011;10739;52.198;20.908;2024-03-17T00:23:03;14.90;;;3.08;;
21162;SDS011;10739;52.198;20.908;2024-03-17T00:25:34;13.57;;;2.60;;
21162;SDS011;10739;52.198;20.908;2024-03-17T00:28:01;10.32;;;2.80;;
21162;SDS011;10739;52.198;20.908;2024-03-17T00:30:28;12.73;;;2.83;;
21162;SDS011;10739;52.198;20.908;2024-03-17T00:32:54;10.23;;;2.42;;
21162;SDS011;10739;52.198;20.908;2024-03-17T00:35:21;15.98;;;3.10;;
21162;SDS011;10739;52.198;20.908;2024-03-17T00:37:47;11.02;;;2.92;;
21162;SDS011;10739;52.198;20.908;2024-03-17T00:40:14;11.82;;;2.63;;
21162;SDS011;10739;52.198;20.908;2024-03-17T00:42:42;11.10;;;2.33;;
21162;SDS011;10739;52.198;20.908;2024-03-17T00:45:10;17.20;;;2.97;;
21162;SDS011;10739;52.198;20.908;2024-03-17T00:47:37;8.73;;;2.42;;
21162;SDS011;10739;52.198;20.908;2024-03-17T00:50:04;17.63;;;2.85;;
21162;SDS011;10739;52.198;20.908;2024-03-17T00:52:37;12.98;;;2.78;;
21162;SDS011;10739;52.198;20.908;2024-03-17T00:55:03;13.25;;;2.63;;
21162;SDS011;10739;52.198;20.908;2024-03-17T00:57:29;14.23;;;2.63;;
21162;SDS011;10739;52.198;20.908;2024-03-17T00:59:56;12.07;;;2.55;;
21162;SDS011;10739;52.198;20.908;2024-03-17T01:02:22;15.88;;;2.97;;
21162;SDS011;10739;52.198;20.908;2024-03-17T01:04:48;13.98;;;3.00;;
21162;SDS011;10739;52.198;20.908;2024-03-17T01:07:14;11.65;;;2.45;;
21162;SDS011;10739;52.198;20.908;2024-03-17T01:09:40;13.35;;;2.22;;
21162;SDS011;10739;52.198;20.908;2024-03-17T01:12:06;12.00;;;2.58;;
21162;SDS011;10739;52.198;20.908;2024-03-17T01:14:32;15.13;;;2.80;;
21162;SDS011;10739;52.198;20.908;2024-03-17T01:17:01;9.32;;;2.33;;
21162;SDS011;10739;52.198;20.908;2024-03-17T01:19:30;17.07;;;2.70;;
21162;SDS011;10739;52.198;20.908;2024-03-17T01:22:00;17.40;;;3.42;;
21162;SDS011;10739;52.198;20.908;2024-03-17T01:24:27;14.70;;;2.63;;
21162;SDS011;10739;52.198;20.908;2024-03-17T01:26:57;9.25;;;2.25;;
21162;SDS011;10739;52.198;20.908;2024-03-17T01:29:24;13.13;;;2.90;;
21162;SDS011;10739;52.198;20.908;2024-03-17T01:31:51;10.15;;;2.20;;
21162;SDS011;10739;52.198;20.908;2024-03-17T01:34:18;15.20;;;3.97;;
21162;SDS011;10739;52.198;20.908;2024-03-17T01:36:45;7.50;;;2.67;;
21162;SDS011;10739;52.198;20.908;2024-03-17T01:39:12;11.18;;;2.58;;
21162;SDS011;10739;52.198;20.908;2024-03-17T01:41:38;14.88;;;2.92;;
21162;SDS011;10739;52.198;20.908;2024-03-17T01:44:05;11.30;;;2.92;;
21162;SDS011;10739;52.198;20.908;2024-03-17T01:46:32;14.65;;;2.88;;
21162;SDS011;10739;52.198;20.908;2024-03-17T01:48:58;12.23;;;2.88;;
21162;SDS011;10739;52.198;20.908;2024-03-17T01:51:25;17.92;;;3.10;;
21162;SDS011;10739;52.198;20.908;2024-03-17T01:53:51;11.93;;;3.05;;
21162;SDS011;10739;52.198;20.908;2024-03-17T01:56:19;9.88;;;2.33;;
21162;SDS011;10739;52.198;20.908;2024-03-17T01:58:45;14.50;;;2.47;;
21162;SDS011;10739;52.198;20.908;2024-03-17T02:01:13;19.52;;;2.58;;
21162;SDS011;10739;52.198;20.908;2024-03-17T02:03:42;13.65;;;2.58;;
21162;SDS011;10739;52.198;20.908;2024-03-17T02:06:09;17.38;;;3.58;;
21162;SDS011;10739;52.198;20.908;2024-03-17T02:08:51;10.98;;;2.88;;
21162;SDS011;10739;52.198;20.908;2024-03-17T02:13:57;12.35;;;2.67;;
21162;SDS011;10739;52.198;20.908;2024-03-17T02:16:24;16.60;;;3.15;;
21162;SDS011;10739;52.198;20.908;2024-03-17T02:18:54;19.63;;;4.22;;
21162;SDS011;10739;52.198;20.908;2024-03-17T02:21:21;14.13;;;3.58;;
21162;SDS011;10739;52.198;20.908;2024-03-17T02:23:50;11.85;;;2.40;;
21162;SDS011;10739;52.198;20.908;2024-03-17T02:26:17;15.48;;;3.15;;
21162;SDS011;10739;52.198;20.908;2024-03-17T02:28:44;15.27;;;2.53;;
21162;SDS011;10739;52.198;20.908;2024-03-17T02:31:14;19.42;;;3.38;;
21162;SDS011;10739;52.198;20.908;2024-03-17T02:33:43;14.70;;;3.03;;
21162;SDS011;10739;52.198;20.908;2024-03-17T02:36:11;13.85;;;2.53;;
21162;SDS011;10739;52.198;20.908;2024-03-17T02:38:38;14.18;;;3.10;;
21162;SDS011;10739;52.198;20.908;2024-03-17T02:41:25;16.95;;;3.33;;
21162;SDS011;10739;52.198;20.908;2024-03-17T02:43:54;17.92;;;4.70;;
21162;SDS011;10739;52.198;20.908;2024-03-17T02:46:20;14.25;;;3.75;;
21162;SDS011;10739;52.198;20.908;2024-03-17T02:48:49;14.63;;;3.10;;
21162;SDS011;10739;52.198;20.908;2024-03-17T02:51:18;19.42;;;3.33;;
21162;SDS011;10739;52.198;20.908;2024-03-17T02:53:48;17.98;;;3.05;;
21162;SDS011;10739;52.198;20.908;2024-03-17T02:56:15;10.85;;;2.88;;
21162;SDS011;10739;52.198;20.908;2024-03-17T02:58:44;12.27;;;3.15;;
21162;SDS011;10739;52.198;20.908;2024-03-17T03:01:12;10.60;;;2.55;;
21162;SDS011;10739;52.198;20.908;2024-03-17T03:03:40;16.67;;;2.85;;
21162;SDS011;10739;52.198;20.908;2024-03-17T03:06:06;11.68;;;3.03;;
21162;SDS011;10739;52.198;20.908;2024-03-17T03:08:40;19.05;;;3.42;;
21162;SDS011;10739;52.198;20.908;2024-03-17T03:11:08;15.80;;;2.88;;
21162;SDS011;10739;52.198;20.908;2024-03-17T03:13:41;10.45;;;2.88;;
21162;SDS011;10739;52.198;20.908;2024-03-17T03:16:10;14.07;;;3.55;;
21162;SDS011;10739;52.198;20.908;2024-03-17T03:18:44;14.75;;;3.10;;
21162;SDS011;10739;52.198;20.908;2024-03-17T03:21:13;17.98;;;3.13;;
21162;SDS011;10739;52.198;20.908;2024-03-17T03:23:41;15.65;;;3.40;;
21162;SDS011;10739;52.198;20.908;2024-03-17T03:26:12;13.75;;;3.63;;
21162;SDS011;10739;52.198;20.908;2024-03-17T03:28:41;14.32;;;3.35;;
21162;SDS011;10739;52.198;20.908;2024-03-17T03:31:11;20.17;;;3.67;;
21162;SDS011;10739;52.198;20.908;2024-03-17T03:33:45;11.75;;;3.17;;
21162;SDS011;10739;52.198;20.908;2024-03-17T03:36:13;19.52;;;3.53;;
21162;SDS011;10739;52.198;20.908;2024-03-17T03:38:41;21.42;;;3.45;;
21162;SDS011;10739;52.198;20.908;2024-03-17T03:41:09;18.52;;;3.03;;
21162;SDS011;10739;52.198;20.908;2024-03-17T03:43:45;12.32;;;3.33;;
21162;SDS011;10739;52.198;20.908;2024-03-17T03:46:13;20.80;;;3.25;;
21162;SDS011;10739;52.198;20.908;2024-03-17T03:48:39;17.65;;;3.38;;
21162;SDS011;10739;52.198;20.908;2024-03-17T03:51:06;11.23;;;3.13;;
21162;SDS011;10739;52.198;20.908;2024-03-17T03:53:35;13.93;;;3.60;;
21162;SDS011;10739;52.198;20.908;2024-03-17T03:56:03;19.73;;;3.35;;
21162;SDS011;10739;52.198;20.908;2024-03-17T03:58:39;18.20;;;3.42;;
21162;SDS011;10739;52.198;20.908;2024-03-17T04:01:09;13.70;;;3.88;;
21162;SDS011;10739;52.198;20.908;2024-03-17T04:03:46;18.48;;;3.90;;
21162;SDS011;10739;52.198;20.908;2024-03-17T04:06:14;16.48;;;3.45;;
21162;SDS011;10739;52.198;20.908;2024-03-17T04:08:41;21.00;;;3.65;;
21162;SDS011;10739;52.198;20.908;2024-03-17T04:11:08;11.65;;;2.97;;
21162;SDS011;10739;52.198;20.908;2024-03-17T04:13:35;13.25;;;3.05;;
21162;SDS011;10739;52.198;20.908;2024-03-17T04:16:05;13.05;;;3.50;;
21162;SDS011;10739;52.198;20.908;2024-03-17T04:18:32;26.55;;;4.38;;
21162;SDS011;10739;52.198;20.908;2024-03-17T04:21:03;14.80;;;4.05;;
21162;SDS011;10739;52.198;20.908;2024-03-17T04:23:34;8.27;;;2.60;;
21162;SDS011;10739;52.198;20.908;2024-03-17T04:26:00;18.08;;;3.10;;
21162;SDS011;10739;52.198;20.908;2024-03-17T04:28:28;12.82;;;2.90;;
21162;SDS011;10739;52.198;20.908;2024-03-17T04:31:06;10.73;;;2.83;;
21162;SDS011;10739;52.198;20.908;2024-03-17T04:33:33;13.00;;;3.17;;
21162;SDS011;10739;52.198;20.908;2024-03-17T04:36:00;13.88;;;3.47;;
21162;SDS011;10739;52.198;20.908;2024-03-17T04:38:29;17.63;;;3.42;;
21162;SDS011;10739;52.198;20.908;2024-03-17T04:40:56;13.95;;;3.13;;
21162;SDS011;10739;52.198;20.908;2024-03-17T04:43:30;18.17;;;3.85;;
21162;SDS011;10739;52.198;20.908;2024-03-17T04:46:01;13.15;;;3.50;;
21162;SDS011;10739;52.198;20.908;2024-03-17T04:48:31;14.98;;;2.90;;
21162;SDS011;10739;52.198;20.908;2024-03-17T04:50:58;14.07;;;3.42;;
21162;SDS011;10739;52.198;20.908;2024-03-17T04:53:26;13.75;;;3.67;;
21162;SDS011;10739;52.198;20.908;2024-03-17T04:55:59;14.35;;;3.15;;
21162;SDS011;10739;52.198;20.908;2024-03-17T04:58:31;10.68;;;3.17;;
21162;SDS011;10739;52.198;20.908;2024-03-17T05:01:03;9.68;;;3.67;;
21162;SDS011;10739;52.198;20.908;2024-03-17T05:03:32;13.95;;;3.42;;
21162;SDS011;10739;52.198;20.908;2024-03-17T05:06:02;18.02;;;4.05;;
21162;SDS011;10739;52.198;20.908;2024-03-17T05:08:30;18.77;;;3.80;;
21162;SDS011;10739;52.198;20.908;2024-03-17T05:13:28;16.27;;;3.50;;
21162;SDS011;10739;52.198;20.908;2024-03-17T05:15:54;18.17;;;3.90;;
21162;SDS011;10739;52.198;20.908;2024-03-17T05:18:20;11.88;;;3.83;;
21162;SDS011;10739;52.198;20.908;2024-03-17T05:20:58;19.17;;;3.42;;
21162;SDS011;10739;52.198;20.908;2024-03-17T05:23:32;13.40;;;4.13;;
21162;SDS011;10739;52.198;20.908;2024-03-17T05:26:00;19.27;;;4.13;;
21162;SDS011;10739;52.198;20.908;2024-03-17T05:28:30;17.38;;;4.15;;
21162;SDS011;10739;52.198;20.908;2024-03-17T05:30:57;11.73;;;3.25;;
21162;SDS011;10739;52.198;20.908;2024-03-17T05:33:24;13.73;;;3.95;;
21162;SDS011;10739;52.198;20.908;2024-03-17T05:35:52;20.08;;;4.32;;
21162;SDS011;10739;52.198;20.908;2024-03-17T05:38:25;13.05;;;5.47;;
21162;SDS011;10739;52.198;20.908;2024-03-17T05:41:00;19.13;;;3.58;;
21162;SDS011;10739;52.198;20.908;2024-03-17T05:43:29;13.00;;;3.90;;
21162;SDS011;10739;52.198;20.908;2024-03-17T05:45:58;16.48;;;3.92;;
21162;SDS011;10739;52.198;20.908;2024-03-17T05:48:26;14.93;;;4.28;;
21162;SDS011;10739;52.198;20.908;2024-03-17T05:50:53;13.88;;;3.53;;
21162;SDS011;10739;52.198;20.908;2024-03-17T05:53:22;17.02;;;3.95;;
21162;SDS011;10739;52.198;20.908;2024-03-17T05:55:50;13.18;;;3.47;;
21162;SDS011;10739;52.198;20.908;2024-03-17T05:58:16;18.00;;;3.90;;
21162;SDS011;10739;52.198;20.908;2024-03-17T06:00:43;16.55;;;3.88;;
21162;SDS011;10739;52.198;20.908;2024-03-17T06:03:09;10.75;;;3.30;;
21162;SDS011;10739;52.198;20.908;2024-03-17T06:05:36;13.93;;;3.50;;
21162;SDS011;10739;52.198;20.908;2024-03-17T06:08:08;9.93;;;3.83;;
21162;SDS011;10739;52.198;20.908;2024-03-17T06:10:37;15.52;;;3.90;;
21162;SDS011;10739;52.198;20.908;2024-03-17T06:13:07;17.23;;;4.47;;
21162;SDS011;10739;52.198;20.908;2024-03-17T06:15:37;8.75;;;3.80;;
21162;SDS011;10739;52.198;20.908;2024-03-17T06:18:05;17.23;;;4.05;;
21162;SDS011;10739;52.198;20.908;2024-03-17T06:20:39;12.40;;;4.22;;
21162;SDS011;10739;52.198;20.908;2024-03-17T06:23:10;8.70;;;3.95;;
21162;SDS011;10739;52.198;20.908;2024-03-17T06:25:47;15.43;;;3.95;;
21162;SDS011;10739;52.198;20.908;2024-03-17T06:28:16;13.63;;;4.20;;
21162;SDS011;10739;52.198;20.908;2024-03-17T06:30:46;18.30;;;4.22;;
21162;SDS011;10739;52.198;20.908;2024-03-17T06:33:22;13.38;;;4.53;;
21162;SDS011;10739;52.198;20.908;2024-03-17T06:35:48;12.93;;;3.83;;
21162;SDS011;10739;52.198;20.908;2024-03-17T06:38:14;22.27;;;3.80;;
21162;SDS011;10739;52.198;20.908;2024-03-17T06:40:41;14.57;;;3.63;;
21162;SDS011;10739;52.198;20.908;2024-03-17T06:43:14;18.65;;;3.80;;
21162;SDS011;10739;52.198;20.908;2024-03-17T06:45:40;13.15;;;3.30;;
21162;SDS011;10739;52.198;20.908;2024-03-17T06:48:07;18.70;;;3.33;;
21162;SDS011;10739;52.198;20.908;2024-03-17T06:50:33;12.30;;;3.08;;
21162;SDS011;10739;52.198;20.908;2024-03-17T06:52:59;12.52;;;3.10;;
21162;SDS011;10739;52.198;20.908;2024-03-17T06:55:25;10.75;;;2.65;;
21162;SDS011;10739;52.198;20.908;2024-03-17T06:57:53;12.82;;;3.55;;
21162;SDS011;10739;52.198;20.908;2024-03-17T07:00:19;8.63;;;2.88;;
21162;SDS011;10739;52.198;20.908;2024-03-17T07:02:50;7.53;;;2.60;;
21162;SDS011;10739;52.198;20.908;2024-03-17T07:05:16;11.45;;;2.85;;
21162;SDS011;10739;52.198;20.908;2024-03-17T07:07:43;10.45;;;2.67;;
21162;SDS011;10739;52.198;20.908;2024-03-17T07:10:10;19.92;;;3.75;;
21162;SDS011;10739;52.198;20.908;2024-03-17T07:12:38;15.82;;;3.22;;
21162;SDS011;10739;52.198;20.908;2024-03-17T07:15:05;10.73;;;3.13;;
21162;SDS011;10739;52.198;20.908;2024-03-17T07:17:32;12.43;;;2.92;;
21162;SDS011;10739;52.198;20.908;2024-03-17T07:19:59;9.55;;;2.78;;
21162;SDS011;10739;52.198;20.908;2024-03-17T07:22:26;10.82;;;2.95;;
21162;SDS011;10739;52.198;20.908;2024-03-17T07:24:53;14.07;;;3.05;;
21162;SDS011;10739;52.198;20.908;2024-03-17T07:27:29;11.93;;;3.17;;
21162;SDS011;10739;52.198;20.908;2024-03-17T07:29:57;10.82;;;3.25;;
21162;SDS011;10739;52.198;20.908;2024-03-17T07:32:23;9.95;;;2.88;;
21162;SDS011;10739;52.198;20.908;2024-03-17T07:34:49;8.65;;;2.85;;
21162;SDS011;10739;52.198;20.908;2024-03-17T07:37:17;10.30;;;2.85;;
21162;SDS011;10739;52.198;20.908;2024-03-17T07:39:43;12.85;;;2.80;;
21162;SDS011;10739;52.198;20.908;2024-03-17T07:42:09;9.13;;;2.92;;
21162;SDS011;10739;52.198;20.908;2024-03-17T07:44:35;10.15;;;3.25;;
21162;SDS011;10739;52.198;20.908;2024-03-17T07:47:01;11.57;;;3.38;;
21162;SDS011;10739;52.198;20.908;2024-03-17T07:49:31;8.07;;;2.53;;
21162;SDS011;10739;52.198;20.908;2024-03-17T07:51:57;18.33;;;2.80;;
21162;SDS011;10739;52.198;20.908;2024-03-17T07:54:24;14.45;;;3.53;;
21162;SDS011;10739;52.198;20.908;2024-03-17T07:56:51;10.18;;;2.55;;
21162;SDS011;10739;52.198;20.908;2024-03-17T07:59:18;12.30;;;3.15;;
21162;SDS011;10739;52.198;20.908;2024-03-17T08:01:44;13.60;;;2.97;;
21162;SDS011;10739;52.198;20.908;2024-03-17T08:04:11;10.93;;;2.80;;
21162;SDS011;10739;52.198;20.908;2024-03-17T08:06:41;10.00;;;2.63;;
21162;SDS011;10739;52.198;20.908;2024-03-17T08:09:08;9.25;;;3.08;;
21162;SDS011;10739;52.198;20.908;2024-03-17T08:11:37;14.40;;;3.50;;
21162;SDS011;10739;52.198;20.908;2024-03-17T08:14:04;17.83;;;3.95;;
21162;SDS011;10739;52.198;20.908;2024-03-17T08:16:31;9.70;;;3.13;;
21162;SDS011;10739;52.198;20.908;2024-03-17T08:18:57;13.45;;;3.28;;
21162;SDS011;10739;52.198;20.908;2024-03-17T08:21:23;9.57;;;3.28;;
21162;SDS011;10739;52.198;20.908;2024-03-17T08:23:50;12.63;;;3.35;;
21162;SDS011;10739;52.198;20.908;2024-03-17T08:26:17;10.02;;;3.25;;
21162;SDS011;10739;52.198;20.908;2024-03-17T08:28:44;10.27;;;3.28;;
21162;SDS011;10739;52.198;20.908;2024-03-17T08:31:11;13.60;;;3.53;;
21162;SDS011;10739;52.198;20.908;2024-03-17T08:33:38;12.02;;;3.47;;
21162;SDS011;10739;52.198;20.908;2024-03-17T08:36:05;9.02;;;3.38;;
21162;SDS011;10739;52.198;20.908;2024-03-17T08:38:33;9.63;;;3.45;;
21162;SDS011;10739;52.198;20.908;2024-03-17T08:41:07;14.02;;;3.40;;
21162;SDS011;10739;52.198;20.908;2024-03-17T08:43:36;10.23;;;3.03;;
21162;SDS011;10739;52.198;20.908;2024-03-17T08:46:03;9.65;;;2.88;;
21162;SDS011;10739;52.198;20.908;2024-03-17T08:48:33;11.63;;;3.55;;
21162;SDS011;10739;52.198;20.908;2024-03-17T08:51:02;12.77;;;2.97;;
21162;SDS011;10739;52.198;20.908;2024-03-17T08:53:31;12.55;;;4.47;;
21162;SDS011;10739;52.198;20.908;2024-03-17T08:55:58;14.32;;;3.20;;
21162;SDS011;10739;52.198;20.908;2024-03-17T08:58:25;12.80;;;4.03;;
21162;SDS011;10739;52.198;20.908;2024-03-17T09:00:52;10.85;;;4.25;;
21162;SDS011;10739;52.198;20.908;2024-03-17T09:03:19;16.60;;;3.45;;
21162;SDS011;10739;52.198;20.908;2024-03-17T09:05:46;13.00;;;3.80;;
21162;SDS011;10739;52.198;20.908;2024-03-17T09:08:17;9.73;;;3.88;;
21162;SDS011;10739;52.198;20.908;2024-03-17T09:10:47;17.25;;;3.72;;
21162;SDS011;10739;52.198;20.908;2024-03-17T09:13:22;10.18;;;3.75;;
21162;SDS011;10739;52.198;20.908;2024-03-17T09:15:51;13.15;;;4.30;;
21162;SDS011;10739;52.198;20.908;2024-03-17T09:18:28;12.77;;;4.10;;
21162;SDS011;10739;52.198;20.908;2024-03-17T09:21:05;9.68;;;3.53;;
21162;SDS011;10739;52.198;20.908;2024-03-17T09:23:33;15.05;;;3.75;;
21162;SDS011;10739;52.198;20.908;2024-03-17T09:28:31;15.73;;;3.75;;
21162;SDS011;10739;52.198;20.908;2024-03-17T09:30:58;11.85;;;3.42;;
21162;SDS011;10739;52.198;20.908;2024-03-17T09:33:26;9.65;;;3.35;;
21162;SDS011;10739;52.198;20.908;2024-03-17T09:35:55;10.88;;;3.38;;
21162;SDS011;10739;52.198;20.908;2024-03-17T09:38:25;13.82;;;3.42;;
21162;SDS011;10739;52.198;20.908;2024-03-17T09:40:53;10.00;;;3.25;;
21162;SDS011;10739;52.198;20.908;2024-03-17T09:43:26;13.18;;;3.42;;
21162;SDS011;10739;52.198;20.908;2024-03-17T09:45:58;11.85;;;3.45;;
21162;SDS011;10739;52.198;20.908;2024-03-17T09:48:28;5.75;;;2.60;;
21162;SDS011;10739;52.198;20.908;2024-03-17T09:50:55;10.27;;;2.70;;
21162;SDS011;10739;52.198;20.908;2024-03-17T09:53:24;4.88;;;2.22;;
21162;SDS011;10739;52.198;20.908;2024-03-17T09:55:54;9.80;;;2.90;;
21162;SDS011;10739;52.198;20.908;2024-03-17T09:58:29;6.20;;;2.08;;
21162;SDS011;10739;52.198;20.908;2024-03-17T10:00:55;8.40;;;2.40;;
21162;SDS011;10739;52.198;20.908;2024-03-17T10:06:17;6.50;;;2.50;;
21162;SDS011;10739;52.198;20.908;2024-03-17T10:08:45;9.90;;;2.10;;
21162;SDS011;10739;52.198;20.908;2024-03-17T10:11:22;5.70;;;2.05;;
21162;SDS011;10739;52.198;20.908;2024-03-17T10:13:58;7.23;;;3.03;;
21162;SDS011;10739;52.198;20.908;2024-03-17T10:16:37;3.63;;;2.15;;
21162;SDS011;10739;52.198;20.908;2024-03-17T10:19:11;8.80;;;2.47;;
21162;SDS011;10739;52.198;20.908;2024-03-17T10:24:24;8.90;;;3.28;;
21162;SDS011;10739;52.198;20.908;2024-03-17T10:27:01;8.65;;;2.60;;
21162;SDS011;10739;52.198;20.908;2024-03-17T10:29:34;7.20;;;2.67;;
21162;SDS011;10739;52.198;20.908;2024-03-17T10:32:04;7.18;;;2.78;;
21162;SDS011;10739;52.198;20.908;2024-03-17T10:34:38;4.78;;;2.15;;
21162;SDS011;10739;52.198;20.908;2024-03-17T10:37:05;10.00;;;2.88;;
21162;SDS011;10739;52.198;20.908;2024-03-17T10:39:40;9.77;;;2.92;;
21162;SDS011;10739;52.198;20.908;2024-03-17T10:42:10;7.63;;;2.88;;
21162;SDS011;10739;52.198;20.908;2024-03-17T10:44:39;6.97;;;2.65;;
21162;SDS011;10739;52.198;20.908;2024-03-17T10:47:46;7.15;;;2.78;;
21162;SDS011;10739;52.198;20.908;2024-03-17T10:50:08;7.60;;;2.67;;
21162;SDS011;10739;52.198;20.908;2024-03-17T10:52:46;3.72;;;2.13;;
21162;SDS011;10739;52.198;20.908;2024-03-17T10:55:21;4.13;;;2.58;;
21162;SDS011;10739;52.198;20.908;2024-03-17T10:57:52;5.88;;;2.70;;
21162;SDS011;10739;52.198;20.908;2024-03-17T11:00:23;7.10;;;2.88;;
21162;SDS011;10739;52.198;20.908;2024-03-17T11:02:55;5.97;;;2.72;;
21162;SDS011;10739;52.198;20.908;2024-03-17T11:05:22;7.40;;;2.88;;
21162;SDS011;10739;52.198;20.908;2024-03-17T11:07:55;2.75;;;2.40;;
21162;SDS011;10739;52.198;20.908;2024-03-17T11:10:27;7.73;;;2.63;;
21162;SDS011;10739;52.198;20.908;2024-03-17T11:13:05;5.63;;;2.53;;
21162;SDS011;10739;52.198;20.908;2024-03-17T11:15:48;6.55;;;2.28;;
21162;SDS011;10739;52.198;20.908;2024-03-17T11:20:58;6.97;;;2.22;;
21162;SDS011;10739;52.198;20.908;2024-03-17T11:23:32;4.85;;;2.60;;
21162;SDS011;10739;52.198;20.908;2024-03-17T11:25:59;4.07;;;2.42;;
21162;SDS011;10739;52.198;20.908;2024-03-17T11:31:50;4.05;;;2.67;;
21162;SDS011;10739;52.198;20.908;2024-03-17T11:34:26;4.97;;;2.30;;
21162;SDS011;10739;52.198;20.908;2024-03-17T11:36:57;3.28;;;2.03;;
21162;SDS011;10739;52.198;20.908;2024-03-17T11:42:16;2.85;;;1.55;;
21162;SDS011;10739;52.198;20.908;2024-03-17T11:44:43;2.03;;;1.17;;
21162;SDS011;10739;52.198;20.908;2024-03-17T11:47:36;3.38;;;1.02;;
21162;SDS011;10739;52.198;20.908;2024-03-17T11:50:08;1.40;;;0.95;;
21162;SDS011;10739;52.198;20.908;2024-03-17T11:52:40;2.08;;;1.23;;
21162;SDS011;10739;52.198;20.908;2024-03-17T11:55:15;6.60;;;1.40;;
21162;SDS011;10739;52.198;20.908;2024-03-17T11:57:43;1.10;;;1.00;;
21162;SDS011;10739;52.198;20.908;2024-03-17T12:00:21;1.13;;;1.08;;
21162;SDS011;10739;52.198;20.908;2024-03-17T12:02:49;2.08;;;1.50;;
21162;SDS011;10739;52.198;20.908;2024-03-17T12:05:16;2.67;;;1.65;;
21162;SDS011;10739;52.198;20.908;2024-03-17T12:07:43;1.85;;;1.50;;
21162;SDS011;10739;52.198;20.908;2024-03-17T12:10:10;3.92;;;2.00;;
21162;SDS011;10739;52.198;20.908;2024-03-17T12:12:38;1.75;;;1.30;;
21162;SDS011;10739;52.198;20.908;2024-03-17T12:15:18;1.33;;;1.23;;
21162;SDS011;10739;52.198;20.908;2024-03-17T12:17:45;2.80;;;1.75;;
21162;SDS011;10739;52.198;20.908;2024-03-17T12:20:18;2.40;;;2.03;;
21162;SDS011;10739;52.198;20.908;2024-03-17T12:22:47;3.50;;;1.70;;
21162;SDS011;10739;52.198;20.908;2024-03-17T12:25:16;1.75;;;1.63;;
21162;SDS011;10739;52.198;20.908;2024-03-17T12:27:45;2.40;;;1.40;;
21162;SDS011;10739;52.198;20.908;2024-03-17T12:30:13;2.47;;;1.45;;
21162;SDS011;10739;52.198;20.908;2024-03-17T12:32:41;1.33;;;1.23;;
21162;SDS011;10739;52.198;20.908;2024-03-17T12:35:14;2.40;;;1.50;;
21162;SDS011;10739;52.198;20.908;2024-03-17T12:37:43;1.95;;;1.27;;
21162;SDS011;10739;52.198;20.908;2024-03-17T12:40:21;2.20;;;1.80;;
21162;SDS011;10739;52.198;20.908;2024-03-17T12:42:51;2.30;;;1.30;;
21162;SDS011;10739;52.198;20.908;2024-03-17T12:45:21;3.30;;;1.48;;
21162;SDS011;10739;52.198;20.908;2024-03-17T12:47:48;2.33;;;1.27;;
21162;SDS011;10739;52.198;20.908;2024-03-17T12:50:16;2.78;;;1.50;;
21162;SDS011;10739;52.198;20.908;2024-03-17T12:52:52;2.65;;;1.60;;
21162;SDS011;10739;52.198;20.908;2024-03-17T12:55:23;3.20;;;1.95;;
21162;SDS011;10739;52.198;20.908;2024-03-17T12:58:09;3.22;;;1.60;;
21162;SDS011;10739;52.198;20.908;2024-03-17T13:01:04;1.83;;;1.50;;
21162;SDS011;10739;52.198;20.908;2024-03-17T13:03:32;4.55;;;1.80;;
21162;SDS011;10739;52.198;20.908;2024-03-17T13:06:05;2.45;;;1.30;;
21162;SDS011;10739;52.198;20.908;2024-03-17T13:08:36;6.65;;;1.75;;
21162;SDS011;10739;52.198;20.908;2024-03-17T13:11:02;1.20;;;1.10;;
21162;SDS011;10739;52.198;20.908;2024-03-17T13:13:34;2.00;;;1.77;;
21162;SDS011;10739;52.198;20.908;2024-03-17T13:16:00;4.63;;;1.83;;
21162;SDS011;10739;52.198;20.908;2024-03-17T13:18:32;1.92;;;1.73;;
21162;SDS011;10739;52.198;20.908;2024-03-17T13:20:58;3.97;;;1.60;;
21162;SDS011;10739;52.198;20.908;2024-03-17T13:23:25;2.63;;;1.70;;
21162;SDS011;10739;52.198;20.908;2024-03-17T13:25:51;2.35;;;1.80;;
21162;SDS011;10739;52.198;20.908;2024-03-17T13:28:18;3.67;;;2.30;;
21162;SDS011;10739;52.198;20.908;2024-03-17T13:30:44;2.78;;;1.90;;
21162;SDS011;10739;52.198;20.908;2024-03-17T13:33:12;4.68;;;1.45;;
21162;SDS011;10739;52.198;20.908;2024-03-17T13:35:40;4.43;;;1.70;;
21162;SDS011;10739;52.198;20.908;2024-03-17T13:38:06;2.42;;;1.70;;
21162;SDS011;10739;52.198;20.908;2024-03-17T13:40:35;2.10;;;1.55;;
21162;SDS011;10739;52.198;20.908;2024-03-17T13:43:04;3.85;;;2.00;;
21162;SDS011;10739;52.198;20.908;2024-03-17T13:45:33;5.70;;;1.52;;
21162;SDS011;10739;52.198;20.908;2024-03-17T13:48:05;3.35;;;1.40;;
21162;SDS011;10739;52.198;20.908;2024-03-17T13:50:36;2.40;;;1.40;;
21162;SDS011;10739;52.198;20.908;2024-03-17T13:53:09;1.67;;;1.40;;
21162;SDS011;10739;52.198;20.908;2024-03-17T13:55:36;5.22;;;1.42;;
21162;SDS011;10739;52.198;20.908;2024-03-17T13:58:03;3.17;;;1.67;;
21162;SDS011;10739;52.198;20.908;2024-03-17T14:00:30;1.75;;;1.55;;
21162;SDS011;10739;52.198;20.908;2024-03-17T14:03:04;7.60;;;1.88;;
21162;SDS011;10739;52.198;20.908;2024-03-17T14:05:31;4.57;;;2.55;;
21162;SDS011;10739;52.198;20.908;2024-03-17T14:07:59;3.70;;;1.85;;
21162;SDS011;10739;52.198;20.908;2024-03-17T14:10:26;2.70;;;1.75;;
21162;SDS011;10739;52.198;20.908;2024-03-17T14:12:52;1.48;;;1.33;;
21162;SDS011;10739;52.198;20.908;2024-03-17T14:15:19;2.40;;;1.85;;
21162;SDS011;10739;52.198;20.908;2024-03-17T14:17:46;2.50;;;1.73;;
21162;SDS011;10739;52.198;20.908;2024-03-17T14:20:15;1.52;;;1.40;;
21162;SDS011;10739;52.198;20.908;2024-03-17T14:22:45;3.00;;;1.65;;
21162;SDS011;10739;52.198;20.908;2024-03-17T14:25:22;2.20;;;1.55;;
21162;SDS011;10739;52.198;20.908;2024-03-17T14:27:50;5.55;;;1.52;;
21162;SDS011;10739;52.198;20.908;2024-03-17T14:30:17;1.90;;;1.50;;
21162;SDS011;10739;52.198;20.908;2024-03-17T14:32:47;4.07;;;1.40;;
21162;SDS011;10739;52.198;20.908;2024-03-17T14:35:17;2.63;;;1.45;;
21162;SDS011;10739;52.198;20.908;2024-03-17T14:37:45;5.75;;;1.52;;
21162;SDS011;10739;52.198;20.908;2024-03-17T14:40:15;3.17;;;1.88;;
21162;SDS011;10739;52.198;20.908;2024-03-17T14:42:49;2.97;;;1.95;;
21162;SDS011;10739;52.198;20.908;2024-03-17T14:45:17;2.13;;;1.67;;
21162;SDS011;10739;52.198;20.908;2024-03-17T14:47:43;2.90;;;1.65;;
21162;SDS011;10739;52.198;20.908;2024-03-17T14:50:13;6.43;;;2.10;;
21162;SDS011;10739;52.198;20.908;2024-03-17T14:52:39;3.30;;;2.00;;
21162;SDS011;10739;52.198;20.908;2024-03-17T14:55:07;1.98;;;1.55;;
21162;SDS011;10739;52.198;20.908;2024-03-17T14:57:36;2.30;;;1.55;;
21162;SDS011;10739;52.198;20.908;2024-03-17T15:00:09;2.78;;;1.83;;